createdAt,value
2023-03-01T00:01:49.429Z,11.53
2023-03-01T00:04:19.164Z,11.37
2023-03-01T00:06:48.409Z,11.13
2023-03-01T00:09:17.348Z,11.20
2023-03-01T00:11:46.197Z,11.03
2023-03-01T00:14:14.881Z,11.23
2023-03-01T00:16:45.283Z,12.23
2023-03-01T00:19:17.482Z,13.97
2023-03-01T00:21:47.285Z,12.77
2023-03-01T00:24:15.859Z,13.73
2023-03-01T00:26:44.160Z,13.27
2023-03-01T00:29:12.491Z,13.27
2023-03-01T00:31:40.805Z,13.37
2023-03-01T00:34:09.053Z,13.33
2023-03-01T00:36:39.227Z,13.90
2023-03-01T00:39:13.372Z,13.57
2023-03-01T00:41:42.238Z,14.20
2023-03-01T00:44:10.888Z,14.70
2023-03-01T00:46:39.329Z,14.43
2023-03-01T00:49:07.692Z,14.40
2023-03-01T00:51:35.951Z,13.10
2023-03-01T00:54:05.228Z,14.13
2023-03-01T00:56:35.072Z,13.33
2023-03-01T00:59:03.655Z,13.00
2023-03-01T01:01:33.311Z,12.77
2023-03-01T01:04:04.016Z,12.27
2023-03-01T01:06:34.455Z,11.47
2023-03-01T01:09:02.811Z,13.10
2023-03-01T01:11:32.665Z,12.10
2023-03-01T01:14:02.263Z,11.10
2023-03-01T01:16:31.927Z,10.87
2023-03-01T01:19:00.445Z,11.27
2023-03-01T01:21:29.310Z,10.00
2023-03-01T01:23:59.236Z,9.90
2023-03-01T01:26:30.062Z,8.90
2023-03-01T01:28:59.115Z,8.77
2023-03-01T01:31:29.465Z,7.70
2023-03-01T01:33:58.875Z,7.47
2023-03-01T01:36:27.088Z,7.30
2023-03-01T01:38:55.542Z,7.17
2023-03-01T01:41:26.125Z,7.10
2023-03-01T01:44:16.374Z,7.20
2023-03-01T01:46:49.667Z,7.13
2023-03-01T01:49:26.545Z,7.33
2023-03-01T01:52:01.917Z,7.50
2023-03-01T01:54:36.449Z,7.27
2023-03-01T01:57:08.058Z,7.60
2023-03-01T01:59:37.111Z,7.30
2023-03-01T02:02:07.347Z,7.70
2023-03-01T02:04:35.887Z,7.83
2023-03-01T02:07:11.261Z,8.30
2023-03-01T02:09:40.067Z,8.07
2023-03-01T02:12:08.406Z,8.10
2023-03-01T02:14:36.743Z,8.83
2023-03-01T02:17:06.374Z,7.80
2023-03-01T02:19:46.396Z,7.27
2023-03-01T02:22:21.192Z,7.63
2023-03-01T02:24:59.822Z,6.40
2023-03-01T02:27:39.083Z,6.47
2023-03-01T02:30:13.328Z,6.70
2023-03-01T02:32:43.811Z,6.10
2023-03-01T02:35:15.667Z,5.80
2023-03-01T02:37:45.008Z,5.10
2023-03-01T02:40:17.847Z,5.07
2023-03-01T02:42:51.979Z,4.83
2023-03-01T02:45:22.215Z,4.40
2023-03-01T02:47:50.716Z,4.43
2023-03-01T02:50:37.631Z,3.60
2023-03-01T02:53:13.432Z,3.57
2023-03-01T02:55:42.191Z,3.40
2023-03-01T02:58:10.768Z,3.20
2023-03-01T03:00:46.598Z,2.97
2023-03-01T03:03:16.444Z,2.83
2023-03-01T03:05:44.755Z,2.60
2023-03-01T03:08:13.134Z,2.30
2023-03-01T03:10:43.982Z,2.60
2023-03-01T03:13:13.943Z,2.37
2023-03-01T03:15:44.321Z,2.03
2023-03-01T03:18:16.872Z,2.20
2023-03-01T03:20:45.743Z,2.17
2023-03-01T03:23:14.418Z,2.30
2023-03-01T03:25:43.017Z,2.60
2023-03-01T03:28:11.675Z,2.37
2023-03-01T03:30:43.838Z,2.37
2023-03-01T03:33:15.034Z,2.70
2023-03-01T03:35:45.469Z,2.63
2023-03-01T03:38:18.332Z,2.50
2023-03-01T03:40:48.235Z,2.00
2023-03-01T03:43:18.770Z,2.07
2023-03-01T03:45:49.202Z,1.90
2023-03-01T03:48:18.178Z,2.00
2023-03-01T03:50:51.295Z,1.90
2023-03-01T03:53:20.721Z,1.80
2023-03-01T03:55:50.418Z,1.97
2023-03-01T03:58:20.779Z,1.93
2023-03-01T04:00:53.342Z,1.67
2023-03-01T04:03:23.016Z,1.80
2023-03-01T04:05:52.332Z,1.70
2023-03-01T04:08:22.036Z,1.77
2023-03-01T04:10:52.713Z,2.00
2023-03-01T04:13:23.332Z,2.17
2023-03-01T04:15:53.592Z,1.83
2023-03-01T04:18:23.768Z,1.80
2023-03-01T04:20:56.340Z,1.70
2023-03-01T04:23:25.067Z,1.70
2023-03-01T04:25:56.455Z,1.50
2023-03-01T04:28:26.587Z,1.60
2023-03-01T04:30:57.996Z,1.60
2023-03-01T04:33:27.868Z,1.60
2023-03-01T04:35:56.254Z,1.70
2023-03-01T04:38:24.615Z,2.40
2023-03-01T04:40:52.920Z,1.77
2023-03-01T04:43:21.236Z,1.70
2023-03-01T04:45:49.529Z,1.90
2023-03-01T04:48:19.200Z,1.63
2023-03-01T04:50:47.619Z,1.97
2023-03-01T04:53:15.907Z,1.70
2023-03-01T04:55:44.160Z,6.07
2023-03-01T04:58:12.822Z,1.93
2023-03-01T05:00:41.112Z,1.80
2023-03-01T05:03:10.723Z,1.80
2023-03-01T05:05:41.140Z,1.63
2023-03-01T05:08:18.428Z,1.87
2023-03-01T05:10:48.272Z,1.70
2023-03-01T05:13:21.923Z,1.90
2023-03-01T05:15:51.552Z,1.77
2023-03-01T05:18:19.846Z,1.77
2023-03-01T05:20:49.537Z,1.90
2023-03-01T05:23:17.772Z,1.90
2023-03-01T05:25:46.026Z,1.80
2023-03-01T05:28:15.146Z,1.63
2023-03-01T05:30:43.734Z,1.70
2023-03-01T05:33:14.670Z,1.60
2023-03-01T05:35:44.109Z,1.83
2023-03-01T05:38:15.287Z,2.23
2023-03-01T05:40:45.263Z,1.83
2023-03-01T05:43:14.267Z,1.80
2023-03-01T05:45:43.771Z,1.57
2023-03-01T05:48:13.565Z,1.97
2023-03-01T05:50:43.448Z,1.70
2023-03-01T05:53:15.883Z,1.70
2023-03-01T05:55:45.223Z,1.87
2023-03-01T05:58:16.225Z,1.80
2023-03-01T06:00:44.984Z,2.00
2023-03-01T06:03:14.941Z,1.90
2023-03-01T06:05:44.025Z,2.20
2023-03-01T06:08:14.531Z,2.53
2023-03-01T06:10:43.080Z,2.83
2023-03-01T06:13:11.794Z,2.40
2023-03-01T06:15:40.210Z,2.70
2023-03-01T06:18:08.496Z,2.77
2023-03-01T06:20:36.860Z,2.77
2023-03-01T06:23:05.239Z,2.63
2023-03-01T06:25:35.224Z,2.40
2023-03-01T06:28:03.531Z,3.00
2023-03-01T06:30:31.924Z,2.87
2023-03-01T06:33:02.454Z,2.90
2023-03-01T06:35:32.256Z,2.77
2023-03-01T06:38:02.153Z,2.90
2023-03-01T06:40:32.143Z,2.90
2023-03-01T06:43:01.945Z,3.00
2023-03-01T06:45:30.212Z,2.70
2023-03-01T06:48:05.490Z,2.60
2023-03-01T06:50:34.021Z,2.90
2023-03-01T06:53:02.505Z,2.80
2023-03-01T06:55:31.350Z,2.30
2023-03-01T06:58:02.045Z,2.83
2023-03-01T07:00:30.700Z,2.40
2023-03-01T07:03:03.798Z,2.20
2023-03-01T07:05:32.801Z,2.20
2023-03-01T07:08:01.072Z,2.20
2023-03-01T07:10:29.422Z,2.20
2023-03-01T07:12:58.782Z,2.00
2023-03-01T07:15:29.717Z,2.90
2023-03-01T07:17:59.061Z,2.17
2023-03-01T07:20:27.689Z,4.63
2023-03-01T07:22:57.467Z,10.27
2023-03-01T07:25:25.787Z,8.10
2023-03-01T07:27:54.529Z,4.33
2023-03-01T07:30:26.897Z,3.30
2023-03-01T07:32:57.412Z,2.50
2023-03-01T07:35:27.331Z,1.97
2023-03-01T07:37:55.742Z,2.07
2023-03-01T07:40:24.070Z,1.90
2023-03-01T07:42:56.995Z,1.97
2023-03-01T07:45:26.165Z,2.10
2023-03-01T07:47:56.516Z,2.00
2023-03-01T07:50:25.417Z,2.00
2023-03-01T07:52:53.683Z,1.63
2023-03-01T07:55:22.196Z,1.90
2023-03-01T07:57:50.547Z,1.20
2023-03-01T08:00:19.796Z,1.70
2023-03-01T08:02:47.982Z,1.70
2023-03-01T08:05:18.585Z,1.50
2023-03-01T08:07:46.838Z,1.97
2023-03-01T08:10:15.309Z,2.13
2023-03-01T08:12:43.568Z,2.53
2023-03-01T08:15:12.806Z,2.10
2023-03-01T08:17:41.085Z,2.40
2023-03-01T08:20:13.579Z,3.87
2023-03-01T08:22:43.370Z,4.07
2023-03-01T08:25:11.923Z,2.50
2023-03-01T08:27:40.194Z,3.63
2023-03-01T08:30:10.007Z,3.87
2023-03-01T08:32:40.075Z,3.97
2023-03-01T08:35:09.426Z,3.70
2023-03-01T08:37:37.671Z,3.60
2023-03-01T08:40:11.022Z,4.00
2023-03-01T08:42:39.685Z,3.87
2023-03-01T08:45:09.182Z,4.03
2023-03-01T08:47:37.761Z,7.60
2023-03-01T08:50:07.217Z,6.53
2023-03-01T08:52:35.818Z,5.47
2023-03-01T08:55:04.540Z,10.23
2023-03-01T08:57:34.281Z,15.90
2023-03-01T09:00:02.498Z,12.77
2023-03-01T09:02:30.927Z,10.70
2023-03-01T09:04:59.239Z,7.97
2023-03-01T09:07:29.874Z,6.80
2023-03-01T09:09:58.219Z,5.97
2023-03-01T09:12:27.142Z,6.33
2023-03-01T09:14:56.886Z,4.60
2023-03-01T09:17:25.117Z,4.67
2023-03-01T09:19:53.386Z,4.83
2023-03-01T09:22:21.721Z,4.43
2023-03-01T09:24:50.056Z,7.20
2023-03-01T09:27:19.972Z,14.03
2023-03-01T09:29:48.265Z,6.90
2023-03-01T09:32:18.130Z,6.17
2023-03-01T09:35:06.202Z,5.37
2023-03-01T09:37:35.639Z,10.00
2023-03-01T09:40:05.542Z,16.67
2023-03-01T09:42:37.294Z,12.43
2023-03-01T09:45:09.406Z,10.90
2023-03-01T09:47:39.446Z,7.53
2023-03-01T09:50:13.590Z,5.77
2023-03-01T09:52:44.609Z,5.90
2023-03-01T09:55:15.500Z,3.60
2023-03-01T09:57:51.216Z,5.07
2023-03-01T10:00:32.797Z,3.83
2023-03-01T10:03:12.804Z,3.53
2023-03-01T10:05:49.331Z,2.57
2023-03-01T10:08:32.380Z,4.33
2023-03-01T10:11:01.240Z,2.97
2023-03-01T10:13:36.428Z,2.47
2023-03-01T10:16:12.542Z,2.10
2023-03-01T10:18:43.210Z,2.20
2023-03-01T10:21:18.037Z,2.97
2023-03-01T10:23:46.663Z,3.10
2023-03-01T10:26:37.920Z,2.07
2023-03-01T10:29:09.169Z,2.33
2023-03-01T10:31:46.641Z,2.60
2023-03-01T10:34:19.295Z,2.67
2023-03-01T10:36:50.797Z,4.90
2023-03-01T10:39:21.740Z,3.40
2023-03-01T10:42:01.979Z,4.33
2023-03-01T10:44:47.611Z,3.50
2023-03-01T10:47:21.368Z,2.40
2023-03-01T10:50:00.248Z,5.13
2023-03-01T10:52:35.121Z,6.70
2023-03-01T10:55:21.260Z,6.43
2023-03-01T10:57:49.582Z,3.80
2023-03-01T11:00:26.649Z,3.47
2023-03-01T11:03:13.544Z,3.33
2023-03-01T11:06:00.129Z,2.97
2023-03-01T11:08:41.633Z,3.00
2023-03-01T11:11:26.920Z,2.83
2023-03-01T11:13:58.614Z,2.77
2023-03-01T11:16:35.921Z,2.93
2023-03-01T11:19:18.837Z,3.00
2023-03-01T11:21:56.906Z,2.63
2023-03-01T11:24:32.337Z,2.70
2023-03-01T11:27:05.874Z,2.70
2023-03-01T11:29:48.369Z,2.47
2023-03-01T11:32:17.850Z,1.90
2023-03-01T11:34:51.042Z,2.20
2023-03-01T11:37:30.775Z,2.40
2023-03-01T11:40:08.141Z,3.00
2023-03-01T11:42:48.452Z,3.77
2023-03-01T11:45:17.481Z,4.33
2023-03-01T11:48:01.889Z,4.40
2023-03-01T11:50:37.896Z,5.77
2023-03-01T11:53:38.455Z,5.23
2023-03-01T11:56:18.828Z,8.67
2023-03-01T11:59:15.429Z,7.17
2023-03-01T12:01:57.968Z,5.70
2023-03-01T12:04:51.541Z,5.30
2023-03-01T12:07:26.191Z,2.90
2023-03-01T12:10:24.615Z,2.50
2023-03-01T12:13:20.373Z,3.03
2023-03-01T12:16:08.099Z,2.50
2023-03-01T12:19:07.253Z,2.70
2023-03-01T12:22:01.481Z,3.10
2023-03-01T12:25:07.000Z,2.90
2023-03-01T12:28:00.109Z,2.80
2023-03-01T12:30:41.270Z,3.00
2023-03-01T12:33:24.275Z,3.93
2023-03-01T12:36:14.415Z,3.70
2023-03-01T12:38:47.948Z,5.43
2023-03-01T12:41:45.797Z,4.73
2023-03-01T12:44:30.411Z,5.10
2023-03-01T12:47:13.438Z,4.80
2023-03-01T12:49:46.092Z,4.83
2023-03-01T12:52:17.377Z,4.90
2023-03-01T12:54:46.764Z,4.90
2023-03-01T12:57:20.527Z,6.97
2023-03-01T13:00:03.287Z,5.87
2023-03-01T13:02:38.821Z,11.10
2023-03-01T13:05:25.767Z,10.60
2023-03-01T13:08:01.365Z,6.07
2023-03-01T13:10:35.408Z,5.03
2023-03-01T13:13:13.666Z,3.77
2023-03-01T13:15:43.786Z,4.37
2023-03-01T13:18:33.007Z,5.77
2023-03-01T13:21:03.315Z,6.70
2023-03-01T13:23:36.171Z,4.60
2023-03-01T13:26:16.231Z,4.30
2023-03-01T13:28:50.868Z,3.20
2023-03-01T13:32:02.885Z,3.90
2023-03-01T13:34:50.884Z,4.07
2023-03-01T13:37:35.295Z,3.33
2023-03-01T13:40:25.204Z,3.50
2023-03-01T13:43:04.863Z,3.10
2023-03-01T13:45:40.693Z,4.00
2023-03-01T13:48:17.417Z,4.67
2023-03-01T13:50:52.738Z,7.47
2023-03-01T13:53:22.595Z,7.50
2023-03-01T13:55:54.925Z,5.63
2023-03-01T13:58:26.247Z,3.93
2023-03-01T14:01:00.636Z,3.30
2023-03-01T14:03:30.819Z,4.43
2023-03-01T14:06:16.200Z,11.87
2023-03-01T14:08:46.684Z,6.70
2023-03-01T14:11:49.982Z,6.57
2023-03-01T14:14:42.645Z,7.30
2023-03-01T14:17:34.300Z,4.57
2023-03-01T14:20:06.557Z,4.10
2023-03-01T14:22:37.841Z,3.83
2023-03-01T14:25:19.440Z,11.20
2023-03-01T14:27:56.227Z,10.47
2023-03-01T14:30:27.263Z,4.80
2023-03-01T14:32:57.125Z,4.63
2023-03-01T14:35:28.003Z,4.10
2023-03-01T14:37:57.782Z,4.00
2023-03-01T14:40:29.628Z,3.67
2023-03-01T14:43:00.641Z,3.30
2023-03-01T14:45:31.544Z,3.43
2023-03-01T14:48:03.881Z,3.17
2023-03-01T14:50:34.101Z,2.97
2023-03-01T14:53:05.072Z,2.97
2023-03-01T14:55:36.764Z,3.20
2023-03-01T14:58:07.367Z,4.00
2023-03-01T15:00:36.540Z,3.70
2023-03-01T15:03:14.430Z,2.40
2023-03-01T15:05:45.313Z,3.30
2023-03-01T15:08:20.902Z,2.90
2023-03-01T15:11:01.333Z,4.07
2023-03-01T15:13:33.617Z,4.20
2023-03-01T15:16:11.465Z,4.47
2023-03-01T15:18:45.390Z,6.40
2023-03-01T15:21:19.365Z,6.80
2023-03-01T15:23:54.794Z,8.10
2023-03-01T15:26:30.611Z,6.37
2023-03-01T15:29:01.543Z,4.73
2023-03-01T15:31:36.183Z,4.20
2023-03-01T15:34:13.432Z,5.50
2023-03-01T15:36:45.555Z,6.53
2023-03-01T15:39:38.193Z,5.53
2023-03-01T15:42:08.887Z,4.53
2023-03-01T15:44:43.845Z,4.40
2023-03-01T15:47:29.969Z,4.80
2023-03-01T15:49:59.618Z,4.70
2023-03-01T15:52:31.060Z,4.90
2023-03-01T15:55:05.444Z,4.60
2023-03-01T15:57:33.818Z,4.60
2023-03-01T16:00:02.267Z,4.63
2023-03-01T16:02:31.070Z,4.70
2023-03-01T16:04:59.525Z,4.20
2023-03-01T16:07:29.042Z,4.07
2023-03-01T16:09:57.381Z,4.30
2023-03-01T16:12:27.073Z,4.10
2023-03-01T16:14:55.414Z,3.40
2023-03-01T16:17:23.693Z,3.10
2023-03-01T16:19:51.979Z,4.20
2023-03-01T16:22:26.020Z,4.80
2023-03-01T16:24:54.648Z,4.83
2023-03-01T16:27:23.456Z,4.20
2023-03-01T16:29:53.203Z,4.53
2023-03-01T16:32:21.537Z,8.47
2023-03-01T16:34:50.459Z,9.97
2023-03-01T16:37:20.267Z,10.63
2023-03-01T16:39:49.947Z,6.57
2023-03-01T16:42:18.885Z,4.47
2023-03-01T16:44:47.205Z,12.77
2023-03-01T16:47:16.904Z,9.47
2023-03-01T16:49:45.388Z,6.27
2023-03-01T16:52:13.689Z,6.30
2023-03-01T16:54:41.924Z,5.33
2023-03-01T16:57:10.303Z,6.27
2023-03-01T16:59:38.736Z,8.37
2023-03-01T17:02:09.187Z,8.20
2023-03-01T17:04:39.003Z,7.80
2023-03-01T17:07:07.629Z,7.00
2023-03-01T17:09:37.265Z,8.17
2023-03-01T17:12:06.219Z,11.10
2023-03-01T17:14:34.478Z,16.03
2023-03-01T17:17:03.729Z,12.13
2023-03-01T17:19:32.904Z,10.93
2023-03-01T17:22:02.733Z,12.60
2023-03-01T17:24:34.788Z,9.10
2023-03-01T17:27:03.063Z,7.33
2023-03-01T17:29:31.476Z,8.23
2023-03-01T17:32:00.361Z,9.53
2023-03-01T17:34:28.867Z,7.17
2023-03-01T17:36:57.122Z,7.10
2023-03-01T17:39:32.211Z,13.27
2023-03-01T17:42:01.091Z,47.33
2023-03-01T17:44:29.493Z,24.43
2023-03-01T17:46:57.788Z,13.10
2023-03-01T17:49:26.122Z,9.20
2023-03-01T17:51:54.604Z,7.33
2023-03-01T17:54:23.066Z,6.30
2023-03-01T17:56:53.202Z,6.03
2023-03-01T17:59:21.525Z,5.93
2023-03-01T18:01:49.891Z,20.20
2023-03-01T18:04:18.821Z,10.30
2023-03-01T18:06:47.108Z,10.80
2023-03-01T18:09:15.840Z,9.27
2023-03-01T18:11:46.713Z,8.23
2023-03-01T18:14:17.327Z,6.50
2023-03-01T18:16:45.897Z,10.37
2023-03-01T18:19:14.251Z,14.37
2023-03-01T18:21:44.159Z,19.00
2023-03-01T18:24:12.953Z,18.97
2023-03-01T18:26:41.348Z,14.90
2023-03-01T18:29:10.747Z,13.87
2023-03-01T18:31:40.589Z,11.60
2023-03-01T18:34:09.179Z,16.43
2023-03-01T18:36:38.306Z,11.57
2023-03-01T18:39:08.370Z,7.33
2023-03-01T18:41:37.869Z,6.60
2023-03-01T18:44:06.898Z,10.03
2023-03-01T18:46:37.801Z,6.27
2023-03-01T18:49:08.842Z,4.90
2023-03-01T18:51:37.209Z,3.47
2023-03-01T18:54:05.867Z,3.03
2023-03-01T18:56:35.556Z,3.00
2023-03-01T18:59:04.199Z,2.90
2023-03-01T19:01:36.787Z,5.43
2023-03-01T19:04:09.162Z,26.23
2023-03-01T19:06:37.887Z,33.03
2023-03-01T19:09:06.943Z,22.67
2023-03-01T19:11:36.268Z,15.13
2023-03-01T19:14:05.392Z,8.73
2023-03-01T19:16:35.823Z,6.20
2023-03-01T19:19:06.205Z,5.90
2023-03-01T19:21:36.280Z,5.90
2023-03-01T19:24:05.728Z,5.00
2023-03-01T19:26:34.847Z,4.10
2023-03-01T19:29:03.917Z,4.00
2023-03-01T19:31:32.919Z,4.20
2023-03-01T19:34:11.888Z,4.57
2023-03-01T19:36:43.323Z,3.83
2023-03-01T19:39:13.756Z,3.87
2023-03-01T19:41:43.122Z,3.00
2023-03-01T19:44:12.353Z,4.00
2023-03-01T19:46:41.049Z,4.03
2023-03-01T19:49:09.851Z,5.17
2023-03-01T19:51:39.514Z,6.93
2023-03-01T19:54:12.004Z,10.13
2023-03-01T19:56:40.655Z,19.97
2023-03-01T19:59:09.015Z,42.83
2023-03-01T20:01:37.957Z,28.50
2023-03-01T20:04:09.176Z,17.17
2023-03-01T20:06:39.088Z,12.90
2023-03-01T20:09:21.078Z,11.83
2023-03-01T20:11:50.690Z,11.53
2023-03-01T20:14:22.328Z,11.83
2023-03-01T20:16:51.999Z,8.23
2023-03-01T20:19:21.014Z,5.47
2023-03-01T20:21:49.382Z,5.37
2023-03-01T20:24:19.126Z,3.90
2023-03-01T20:26:47.894Z,3.43
2023-03-01T20:29:16.172Z,3.00
2023-03-01T20:31:44.604Z,3.23
2023-03-01T20:34:12.884Z,2.80
2023-03-01T20:36:41.740Z,2.67
2023-03-01T20:39:11.814Z,4.10
2023-03-01T20:41:41.612Z,4.50
2023-03-01T20:44:10.587Z,3.40
2023-03-01T20:46:39.616Z,3.40
2023-03-01T20:49:08.030Z,3.27
2023-03-01T20:51:36.363Z,2.63
2023-03-01T20:54:05.207Z,4.17
2023-03-01T20:56:34.133Z,3.40
2023-03-01T20:59:05.455Z,3.50
2023-03-01T21:01:34.299Z,4.20
2023-03-01T21:04:02.910Z,4.33
2023-03-01T21:06:32.292Z,3.13
2023-03-01T21:09:00.790Z,3.40
2023-03-01T21:11:29.195Z,2.77
2023-03-01T21:13:57.881Z,3.77
2023-03-01T21:16:28.217Z,3.97
2023-03-01T21:18:56.739Z,4.67
2023-03-01T21:21:25.391Z,3.90
2023-03-01T21:23:58.112Z,3.60
2023-03-01T21:26:28.095Z,3.70
2023-03-01T21:28:58.956Z,4.20
2023-03-01T21:31:32.165Z,3.63
2023-03-01T21:34:04.235Z,3.70
2023-03-01T21:36:33.639Z,3.93
2023-03-01T21:39:03.044Z,4.83
2023-03-01T21:41:33.362Z,5.30
2023-03-01T21:44:03.310Z,4.47
2023-03-01T21:46:36.637Z,3.73
2023-03-01T21:49:05.955Z,3.40
2023-03-01T21:51:37.360Z,3.63
2023-03-01T21:54:06.896Z,3.20
2023-03-01T21:56:39.289Z,2.87
2023-03-01T21:59:09.171Z,2.00
2023-03-01T22:01:38.941Z,2.30
2023-03-01T22:04:07.218Z,2.80
2023-03-01T22:06:40.913Z,3.00
2023-03-01T22:09:12.780Z,2.60
2023-03-01T22:11:43.002Z,2.13
2023-03-01T22:14:13.562Z,2.63
2023-03-01T22:16:45.766Z,3.83
2023-03-01T22:19:15.920Z,5.50
2023-03-01T22:21:49.294Z,3.77
2023-03-01T22:24:18.603Z,2.83
2023-03-01T22:26:49.106Z,2.67
2023-03-01T22:29:21.189Z,2.10
2023-03-01T22:31:51.901Z,1.90
2023-03-01T22:34:20.866Z,2.60
2023-03-01T22:36:49.481Z,2.80
2023-03-01T22:39:20.292Z,2.43
2023-03-01T22:41:49.905Z,3.50
2023-03-01T22:44:24.775Z,2.00
2023-03-01T22:46:55.090Z,1.40
2023-03-01T22:49:23.524Z,1.50
2023-03-01T22:51:53.421Z,1.70
2023-03-01T22:54:22.317Z,1.50
2023-03-01T22:56:51.171Z,1.17
2023-03-01T22:59:23.086Z,1.43
2023-03-01T23:01:52.218Z,1.50
2023-03-01T23:04:22.885Z,1.30
2023-03-01T23:06:54.321Z,1.40
2023-03-01T23:09:25.271Z,1.50
2023-03-01T23:11:54.504Z,1.20
2023-03-01T23:14:23.381Z,1.20
2023-03-01T23:16:52.278Z,1.10
2023-03-01T23:19:22.078Z,1.10
2023-03-01T23:21:51.057Z,1.00
2023-03-01T23:24:21.683Z,1.03
2023-03-01T23:26:53.377Z,1.00
2023-03-01T23:29:22.873Z,1.30
2023-03-01T23:31:51.230Z,1.27
2023-03-01T23:34:21.145Z,1.30
2023-03-01T23:36:49.480Z,1.30
2023-03-01T23:39:17.800Z,1.20
2023-03-01T23:41:46.231Z,1.20
2023-03-01T23:44:17.847Z,1.20
2023-03-01T23:46:47.770Z,1.40
2023-03-01T23:49:18.179Z,1.20
2023-03-01T23:51:48.804Z,1.23
2023-03-01T23:54:19.584Z,1.27
2023-03-01T23:56:48.204Z,1.10
2023-03-01T23:59:18.373Z,1.70
